sim
Sign-in with your pilot id or email,
or register
Callsign
Passwort

Schedule Details

Flight Number: DLH2431
Departure: Gothenburg Landvetter Airport (ESGG) at 17:35
Arrival: Munich Airport (EDDM) at 19:25
Route: Lufthansa Passenger Schedule. Enter filed route here before submitting Pirep.

Weather Information
Getting current METAR information for ESGG 230750Z 16008KT 8000 NSC 12/11 Q1002
Getting current METAR information for EDDM 230750Z 21005KT 180V250 9999 BKN011 BKN035 16/15 Q1010 TEMPO SHRA

Schedule Frequency

Route Map